createdAt,value
2019-04-14T00:02:03.178Z,125.62
2019-04-14T00:04:31.265Z,82.78
2019-04-14T00:06:59.200Z,237.60
2019-04-14T00:09:27.301Z,133.40
2019-04-14T00:11:54.925Z,408.75
2019-04-14T00:14:22.894Z,125.65
2019-04-14T00:16:51.034Z,53.60
2019-04-14T00:19:18.065Z,53.63
2019-04-14T00:21:45.532Z,87.82
2019-04-14T00:24:13.849Z,57.38
2019-04-14T00:26:42.270Z,63.70
2019-04-14T00:29:10.908Z,58.85
2019-04-14T00:31:38.906Z,59.53
2019-04-14T00:34:07.139Z,50.52
2019-04-14T00:36:34.815Z,63.58
2019-04-14T00:39:03.124Z,58.48
2019-04-14T00:41:41.332Z,56.37
2019-04-14T00:44:01.349Z,57.13
2019-04-14T00:46:31.226Z,68.28
2019-04-14T00:48:58.200Z,88.37
2019-04-14T00:51:26.531Z,251.88
2019-04-14T00:53:53.897Z,407.45
2019-04-14T00:56:21.489Z,104.30
2019-04-14T00:58:49.697Z,117.53
2019-04-14T01:01:17.556Z,92.60
2019-04-14T01:03:45.877Z,79.03
2019-04-14T01:06:14.329Z,65.47
2019-04-14T01:08:42.436Z,104.23
2019-04-14T01:11:09.662Z,72.58
2019-04-14T01:13:37.538Z,82.10
2019-04-14T01:16:11.571Z,75.03
2019-04-14T01:18:34.094Z,87.33
2019-04-14T01:21:02.519Z,66.77
2019-04-14T01:23:30.496Z,76.95
2019-04-14T01:25:58.466Z,62.85
2019-04-14T01:28:26.575Z,66.15
2019-04-14T01:30:54.471Z,67.80
2019-04-14T01:33:22.833Z,66.12
2019-04-14T01:35:50.988Z,64.53
2019-04-14T01:38:19.009Z,60.60
2019-04-14T01:40:46.684Z,68.75
2019-04-14T01:43:14.629Z,71.60
2019-04-14T01:45:42.521Z,69.67
2019-04-14T01:48:10.545Z,69.35
2019-04-14T01:50:38.592Z,72.92
2019-04-14T01:53:09.693Z,68.60
2019-04-14T01:55:37.332Z,67.37
2019-04-14T01:58:05.368Z,72.00
2019-04-14T02:00:33.725Z,69.25
2019-04-14T02:03:01.866Z,68.87
2019-04-14T02:05:29.984Z,73.50
2019-04-14T02:07:58.016Z,70.95
2019-04-14T02:10:25.923Z,70.78
2019-04-14T02:12:54.240Z,74.35
2019-04-14T02:15:22.273Z,67.37
2019-04-14T02:17:50.256Z,67.20
2019-04-14T02:20:18.585Z,68.55
2019-04-14T02:22:46.338Z,72.87
2019-04-14T02:25:14.268Z,70.62
2019-04-14T02:27:41.342Z,73.97
2019-04-14T02:30:10.151Z,71.30
2019-04-14T02:33:05.449Z,73.67
2019-04-14T02:35:40.864Z,71.55
2019-04-14T02:38:14.500Z,69.82
2019-04-14T02:40:37.085Z,73.78
2019-04-14T02:42:52.234Z,74.92
2019-04-14T02:45:35.332Z,67.10
2019-04-14T02:48:02.505Z,71.07
2019-04-14T02:52:53.702Z,74.40
2019-04-14T02:55:19.057Z,65.67
2019-04-14T02:57:52.913Z,69.40
2019-04-14T03:00:23.945Z,68.70
2019-04-14T03:02:48.685Z,68.07
2019-04-14T03:05:16.342Z,67.47
2019-04-14T03:07:45.924Z,64.80
2019-04-14T03:10:17.923Z,64.32
2019-04-14T03:15:20.147Z,69.20
2019-04-14T03:17:58.270Z,69.05
2019-04-14T03:20:24.549Z,67.87
2019-04-14T03:22:42.234Z,62.95
2019-04-14T03:24:55.117Z,68.17
2019-04-14T03:30:16.548Z,64.17
2019-04-14T03:33:14.014Z,62.55
2019-04-14T03:35:35.538Z,70.10
2019-04-14T03:37:46.837Z,65.20
2019-04-14T03:40:01.610Z,65.08
2019-04-14T03:42:37.695Z,71.40
2019-04-14T03:45:11.103Z,70.75
2019-04-14T03:47:25.090Z,69.60
2019-04-14T03:50:00.926Z,72.37
2019-04-14T03:52:31.626Z,66.92
2019-04-14T03:54:51.015Z,69.32
2019-04-14T03:57:00.179Z,75.28
2019-04-14T03:59:28.193Z,76.33
2019-04-14T04:01:56.608Z,71.07
2019-04-14T04:04:25.052Z,72.53
2019-04-14T04:06:53.506Z,71.67
2019-04-14T04:09:21.457Z,73.35
2019-04-14T04:11:49.743Z,71.85
2019-04-14T04:14:18.067Z,73.12
2019-04-14T04:16:46.189Z,69.97
2019-04-14T04:19:15.489Z,71.82
2019-04-14T04:21:42.673Z,72.82
2019-04-14T04:24:10.728Z,77.40
2019-04-14T04:26:38.639Z,71.75
2019-04-14T04:29:06.888Z,70.28
2019-04-14T04:31:35.038Z,74.77
2019-04-14T04:34:03.413Z,73.30
2019-04-14T04:36:31.284Z,72.35
2019-04-14T04:38:59.625Z,72.55
2019-04-14T04:41:27.557Z,76.02
2019-04-14T04:43:56.039Z,73.42
2019-04-14T04:46:24.324Z,71.17
2019-04-14T04:49:03.182Z,67.58
2019-04-14T04:51:20.355Z,71.33
2019-04-14T04:53:48.356Z,72.12
2019-04-14T04:56:16.895Z,71.42
2019-04-14T04:58:44.224Z,66.33
2019-04-14T05:01:12.403Z,68.97
2019-04-14T05:03:40.720Z,66.85
2019-04-14T05:06:09.155Z,71.62
2019-04-14T05:08:36.993Z,67.40
2019-04-14T05:11:05.363Z,67.03
2019-04-14T05:13:33.473Z,67.78
2019-04-14T05:16:00.629Z,69.12
2019-04-14T05:18:28.979Z,69.53
2019-04-14T05:20:57.331Z,69.80
2019-04-14T05:23:25.536Z,64.50
2019-04-14T05:25:53.770Z,65.67
2019-04-14T05:28:22.080Z,59.88
2019-04-14T05:30:50.278Z,59.00
2019-04-14T05:33:18.571Z,63.60
2019-04-14T05:35:46.684Z,62.95
2019-04-14T05:38:14.718Z,61.83
2019-04-14T05:40:42.911Z,63.05
2019-04-14T05:43:11.343Z,58.68
2019-04-14T05:45:39.601Z,58.27
2019-04-14T05:48:07.469Z,56.58
2019-04-14T05:50:35.733Z,59.85
2019-04-14T05:53:04.266Z,58.80
2019-04-14T05:55:32.777Z,57.20
2019-04-14T05:57:59.856Z,54.45
2019-04-14T06:00:27.806Z,54.25
2019-04-14T06:02:55.193Z,49.83
2019-04-14T06:05:23.261Z,53.00
2019-04-14T06:07:50.756Z,51.00
2019-04-14T06:10:17.796Z,51.58
2019-04-14T06:12:44.851Z,49.95
2019-04-14T06:15:11.893Z,49.45
2019-04-14T06:17:39.251Z,46.80
2019-04-14T06:20:06.604Z,51.53
2019-04-14T06:22:33.977Z,44.15
2019-04-14T06:25:01.026Z,46.42
2019-04-14T06:27:29.247Z,45.43
2019-04-14T06:29:56.639Z,42.55
2019-04-14T06:32:23.689Z,46.40
2019-04-14T06:34:51.554Z,39.63
2019-04-14T06:37:18.921Z,41.55
2019-04-14T06:39:46.266Z,39.92
2019-04-14T06:42:13.319Z,37.67
2019-04-14T06:44:40.686Z,38.98
2019-04-14T06:47:08.011Z,39.33
2019-04-14T06:49:35.399Z,37.67
2019-04-14T06:52:02.715Z,37.73
2019-04-14T06:54:29.745Z,37.10
2019-04-14T06:56:56.802Z,37.48
2019-04-14T06:59:23.836Z,38.17
2019-04-14T07:01:50.886Z,37.40
2019-04-14T07:04:17.931Z,38.28
2019-04-14T07:06:46.355Z,38.63
2019-04-14T07:09:13.733Z,35.80
2019-04-14T07:11:40.770Z,37.30
2019-04-14T07:14:08.129Z,37.63
2019-04-14T07:16:35.162Z,36.45
2019-04-14T07:19:02.222Z,42.33
2019-04-14T07:21:29.583Z,39.15
2019-04-14T07:23:56.882Z,38.95
2019-04-14T07:26:24.273Z,36.50
2019-04-14T07:28:56.882Z,36.98
2019-04-14T07:31:20.062Z,38.10
2019-04-14T07:33:47.179Z,39.73
2019-04-14T07:36:14.611Z,38.53
2019-04-14T07:38:41.971Z,50.95
2019-04-14T07:41:09.016Z,37.08
2019-04-14T07:43:36.392Z,35.30
2019-04-14T07:46:03.670Z,35.52
2019-04-14T07:48:30.727Z,37.40
2019-04-14T07:50:58.131Z,39.10
2019-04-14T07:53:25.193Z,43.23
2019-04-14T07:55:52.242Z,39.60
2019-04-14T07:58:19.299Z,36.75
2019-04-14T08:00:46.353Z,39.63
2019-04-14T08:03:13.404Z,41.02
2019-04-14T08:05:40.442Z,40.50
2019-04-14T08:08:07.494Z,40.80
2019-04-14T08:10:34.539Z,41.55
2019-04-14T08:13:01.887Z,39.88
2019-04-14T08:15:28.920Z,40.83
2019-04-14T08:17:56.275Z,41.50
2019-04-14T08:20:27.643Z,42.08
2019-04-14T08:22:52.066Z,40.33
2019-04-14T08:25:19.461Z,43.38
2019-04-14T08:27:46.739Z,40.05
2019-04-14T08:30:13.791Z,39.58
2019-04-14T08:32:40.841Z,44.05
2019-04-14T08:35:08.167Z,42.85
2019-04-14T08:37:35.213Z,41.83
2019-04-14T08:40:02.631Z,42.65
2019-04-14T08:42:29.885Z,44.48
2019-04-14T08:44:57.298Z,47.33
2019-04-14T08:47:24.634Z,47.20
2019-04-14T08:49:51.990Z,47.33
2019-04-14T08:52:19.261Z,44.55
2019-04-14T08:54:46.316Z,43.63
2019-04-14T08:57:13.364Z,47.10
2019-04-14T08:59:40.414Z,51.50
2019-04-14T09:02:07.463Z,43.58
2019-04-14T09:04:34.515Z,43.60
2019-04-14T09:07:01.550Z,42.40
2019-04-14T09:09:28.599Z,40.98
2019-04-14T09:11:55.643Z,42.80
2019-04-14T09:14:22.979Z,46.60
2019-04-14T09:16:51.085Z,44.58
2019-04-14T09:19:18.406Z,39.48
2019-04-14T09:21:45.453Z,41.80
2019-04-14T09:24:12.826Z,40.12
2019-04-14T09:26:39.869Z,39.92
2019-04-14T09:29:07.232Z,37.73
2019-04-14T09:31:34.572Z,37.28
2019-04-14T09:34:01.641Z,42.85
2019-04-14T09:36:28.680Z,39.55
2019-04-14T09:38:55.726Z,42.05
2019-04-14T09:41:22.789Z,41.25
2019-04-14T09:43:50.093Z,39.90
2019-04-14T09:46:17.144Z,36.35
2019-04-14T09:48:44.184Z,39.50
2019-04-14T09:51:11.244Z,36.77
2019-04-14T09:53:38.291Z,37.17
2019-04-14T09:56:05.660Z,36.83
2019-04-14T09:58:32.698Z,36.90
2019-04-14T10:00:59.835Z,35.70
2019-04-14T10:03:27.232Z,34.50
2019-04-14T10:05:54.571Z,34.35
2019-04-14T10:08:22.048Z,36.53
2019-04-14T10:10:49.499Z,34.53
2019-04-14T10:13:17.613Z,32.60
2019-04-14T10:15:44.672Z,33.15
2019-04-14T10:18:12.162Z,32.75
2019-04-14T10:20:39.518Z,35.35
2019-04-14T10:23:06.564Z,34.50
2019-04-14T10:25:33.940Z,31.95
2019-04-14T10:28:00.982Z,32.03
2019-04-14T10:30:28.343Z,34.75
2019-04-14T10:32:55.393Z,35.43
2019-04-14T10:35:22.745Z,35.20
2019-04-14T10:37:50.096Z,35.63
2019-04-14T10:40:17.151Z,35.25
2019-04-14T10:42:44.194Z,35.78
2019-04-14T10:45:11.257Z,34.55
2019-04-14T10:47:38.300Z,36.68
2019-04-14T10:50:05.633Z,36.80
2019-04-14T10:52:32.987Z,39.75
2019-04-14T10:55:00.048Z,36.28
2019-04-14T10:57:27.096Z,37.78
2019-04-14T10:59:54.439Z,38.17
2019-04-14T11:02:21.793Z,36.80
2019-04-14T11:04:48.846Z,37.35
2019-04-14T11:07:15.886Z,36.45
2019-04-14T11:09:43.250Z,32.23
2019-04-14T11:12:10.598Z,35.25
2019-04-14T11:14:37.644Z,36.53
2019-04-14T11:17:05.000Z,33.95
2019-04-14T11:19:32.055Z,34.40
2019-04-14T11:21:59.420Z,37.23
2019-04-14T11:24:26.458Z,34.60
2019-04-14T11:26:53.515Z,38.15
2019-04-14T11:29:20.872Z,38.90
2019-04-14T11:31:47.933Z,37.55
2019-04-14T11:34:15.276Z,37.73
2019-04-14T11:36:42.338Z,34.50
2019-04-14T11:39:09.671Z,36.42
2019-04-14T11:41:37.421Z,33.40
2019-04-14T11:44:04.469Z,32.90
2019-04-14T11:46:31.828Z,35.28
2019-04-14T11:48:59.200Z,33.18
2019-04-14T11:51:26.260Z,35.00
2019-04-14T11:53:53.586Z,31.62
2019-04-14T11:56:20.901Z,34.40
2019-04-14T11:58:47.943Z,32.00
2019-04-14T12:01:15.343Z,30.55
2019-04-14T12:03:42.722Z,34.35
2019-04-14T12:06:09.775Z,33.45
2019-04-14T12:08:36.823Z,27.00
2019-04-14T12:11:04.152Z,32.15
2019-04-14T12:13:31.506Z,29.90
2019-04-14T12:15:58.555Z,31.73
2019-04-14T12:18:25.604Z,29.02
2019-04-14T12:20:52.673Z,26.45
2019-04-14T12:23:19.711Z,25.72
2019-04-14T12:25:46.753Z,23.42
2019-04-14T12:28:14.884Z,24.57
2019-04-14T12:30:42.176Z,24.12
2019-04-14T12:33:09.226Z,24.45
2019-04-14T12:35:36.590Z,23.07
2019-04-14T12:38:03.929Z,23.77
2019-04-14T12:40:30.973Z,22.13
2019-04-14T12:42:58.029Z,22.17
2019-04-14T12:45:25.382Z,24.92
2019-04-14T12:47:52.449Z,24.65
2019-04-14T12:50:19.484Z,28.23
2019-04-14T12:52:46.846Z,24.87
2019-04-14T12:55:13.889Z,49.55
2019-04-14T12:57:41.233Z,26.68
2019-04-14T13:00:08.619Z,27.00
2019-04-14T13:02:35.665Z,24.10
2019-04-14T13:05:02.697Z,25.82
2019-04-14T13:07:29.761Z,27.00
2019-04-14T13:09:57.086Z,23.15
2019-04-14T13:12:24.463Z,28.70
2019-04-14T13:14:51.746Z,28.85
2019-04-14T13:17:18.800Z,27.37
2019-04-14T13:19:45.847Z,27.27
2019-04-14T13:22:13.262Z,29.00
2019-04-14T13:24:40.302Z,26.10
2019-04-14T13:27:07.356Z,26.95
2019-04-14T13:29:34.737Z,29.90
2019-04-14T13:32:45.522Z,29.42
2019-04-14T13:35:12.844Z,27.13
2019-04-14T13:37:40.156Z,25.15
2019-04-14T13:40:07.532Z,26.80
2019-04-14T13:42:34.891Z,29.07
2019-04-14T13:45:02.267Z,26.70
2019-04-14T13:47:30.496Z,24.15
2019-04-14T13:49:57.536Z,23.90
2019-04-14T13:52:24.931Z,23.70
2019-04-14T13:54:52.240Z,22.30
2019-04-14T13:57:19.308Z,21.62
2019-04-14T13:59:46.350Z,19.50
2019-04-14T14:02:13.410Z,23.40
2019-04-14T14:04:40.780Z,22.67
2019-04-14T14:07:07.850Z,27.98
2019-04-14T14:09:35.183Z,23.40
2019-04-14T14:12:02.222Z,25.20
2019-04-14T14:14:29.589Z,23.55
2019-04-14T14:16:56.944Z,23.60
2019-04-14T14:19:23.989Z,24.63
2019-04-14T14:21:51.376Z,24.60
2019-04-14T14:24:18.395Z,24.07
2019-04-14T14:26:45.765Z,23.92
2019-04-14T14:29:13.885Z,22.70
2019-04-14T14:31:40.922Z,23.90
2019-04-14T14:34:07.982Z,23.47
2019-04-14T14:36:35.018Z,26.75
2019-04-14T14:39:02.420Z,26.07
2019-04-14T14:41:31.077Z,27.62
2019-04-14T14:43:58.131Z,25.77
2019-04-14T14:46:25.167Z,25.27
2019-04-14T14:48:52.228Z,24.67
2019-04-14T14:51:19.605Z,27.85
2019-04-14T14:53:46.654Z,25.48
2019-04-14T14:56:13.702Z,23.40
2019-04-14T14:58:40.750Z,24.18
2019-04-14T15:01:08.123Z,21.97
2019-04-14T15:03:35.459Z,23.38
2019-04-14T15:06:02.815Z,22.15
2019-04-14T15:08:29.875Z,22.13
2019-04-14T15:10:56.910Z,26.15
2019-04-14T15:13:23.958Z,21.80
2019-04-14T15:15:50.994Z,26.77
2019-04-14T15:18:18.041Z,22.93
2019-04-14T15:20:45.082Z,23.15
2019-04-14T15:23:24.061Z,21.45
2019-04-14T15:25:40.862Z,20.02
2019-04-14T15:28:07.913Z,23.80
2019-04-14T15:30:34.955Z,22.48
2019-04-14T15:33:02.300Z,23.02
2019-04-14T15:35:29.644Z,34.92
2019-04-14T15:37:56.688Z,59.30
2019-04-14T15:40:24.048Z,59.18
2019-04-14T15:42:51.092Z,35.78
2019-04-14T15:45:19.471Z,24.07
2019-04-14T15:47:46.507Z,21.10
2019-04-14T15:50:13.557Z,24.82
2019-04-14T15:52:41.666Z,23.77
2019-04-14T15:55:08.712Z,23.15
2019-04-14T15:57:36.038Z,23.02
2019-04-14T16:00:03.095Z,23.32
2019-04-14T16:02:31.207Z,25.97
2019-04-14T16:04:58.619Z,21.10
2019-04-14T16:07:25.995Z,20.60
2019-04-14T16:09:53.052Z,22.75
2019-04-14T16:12:20.380Z,23.10
2019-04-14T16:14:47.502Z,25.15
2019-04-14T16:17:14.883Z,23.15
2019-04-14T16:19:42.340Z,25.60
2019-04-14T16:22:09.695Z,23.70
2019-04-14T16:24:37.068Z,23.75
2019-04-14T16:27:05.187Z,22.05
2019-04-14T16:29:32.599Z,24.10
2019-04-14T16:31:59.940Z,22.07
2019-04-14T16:34:27.291Z,24.50
2019-04-14T16:36:54.748Z,23.52
2019-04-14T16:39:22.058Z,27.82
2019-04-14T16:41:49.160Z,24.82
2019-04-14T16:44:16.191Z,24.12
2019-04-14T16:46:43.249Z,22.62
2019-04-14T16:49:10.455Z,24.35
2019-04-14T16:51:37.506Z,27.27
2019-04-14T16:54:05.523Z,30.85
2019-04-14T16:56:32.579Z,30.48
2019-04-14T16:58:59.919Z,25.65
2019-04-14T17:01:26.970Z,25.17
2019-04-14T17:03:54.446Z,27.40
2019-04-14T17:06:21.753Z,30.10
2019-04-14T17:08:49.135Z,26.07
2019-04-14T17:11:16.505Z,25.82
2019-04-14T17:13:43.987Z,50.95
2019-04-14T17:16:11.305Z,29.37
2019-04-14T17:18:38.757Z,37.83
2019-04-14T17:21:05.805Z,31.05
2019-04-14T17:23:33.015Z,29.45
2019-04-14T17:26:00.413Z,31.02
2019-04-14T17:28:27.784Z,35.17
2019-04-14T17:30:54.920Z,22.75
2019-04-14T17:33:21.959Z,29.12
2019-04-14T17:35:49.081Z,37.40
2019-04-14T17:38:16.113Z,23.92
2019-04-14T17:40:43.525Z,26.62
2019-04-14T17:43:10.879Z,28.35
2019-04-14T17:45:38.251Z,26.37
2019-04-14T17:48:05.530Z,25.82
2019-04-14T17:50:40.699Z,22.13
2019-04-14T17:53:01.950Z,28.45
2019-04-14T17:55:29.385Z,27.20
2019-04-14T17:57:56.528Z,23.20
2019-04-14T18:00:23.556Z,23.07
2019-04-14T18:02:50.606Z,25.43
2019-04-14T18:05:17.969Z,24.90
2019-04-14T18:07:45.093Z,22.75
2019-04-14T18:10:12.133Z,21.35
2019-04-14T18:12:39.177Z,24.02
2019-04-14T18:15:06.495Z,23.87
2019-04-14T18:17:33.546Z,20.32
2019-04-14T18:20:00.577Z,20.75
2019-04-14T18:22:27.704Z,23.75
2019-04-14T18:24:55.095Z,22.55
2019-04-14T18:27:22.446Z,22.25
2019-04-14T18:29:49.819Z,20.45
2019-04-14T18:32:16.872Z,23.20
2019-04-14T18:34:43.906Z,22.25
2019-04-14T18:37:11.196Z,22.07
2019-04-14T18:39:39.205Z,23.62
2019-04-14T18:42:06.252Z,20.90
2019-04-14T18:44:34.270Z,20.50
2019-04-14T18:47:02.390Z,19.75
2019-04-14T18:49:29.423Z,21.82
2019-04-14T18:51:56.473Z,20.92
2019-04-14T18:54:24.649Z,21.35
2019-04-14T18:56:51.958Z,19.52
2019-04-14T18:59:19.001Z,18.57
2019-04-14T19:01:46.059Z,21.12
2019-04-14T19:04:13.103Z,18.87
2019-04-14T19:06:40.132Z,17.77
2019-04-14T19:09:07.481Z,18.62
2019-04-14T19:11:36.143Z,18.52
2019-04-14T19:14:03.204Z,19.92
2019-04-14T19:16:39.354Z,17.62
2019-04-14T19:18:59.259Z,20.25
2019-04-14T19:21:26.299Z,19.82
2019-04-14T19:23:53.666Z,18.87
2019-04-14T19:26:20.709Z,16.07
2019-04-14T19:28:48.084Z,16.62
2019-04-14T19:31:15.135Z,18.80
2019-04-14T19:33:42.180Z,18.20
2019-04-14T19:36:09.517Z,19.85
2019-04-14T19:38:36.564Z,19.48
2019-04-14T19:41:03.605Z,18.60
2019-04-14T19:43:30.965Z,17.35
2019-04-14T19:45:58.322Z,17.32
2019-04-14T19:48:25.678Z,18.48
2019-04-14T19:50:52.714Z,17.10
2019-04-14T19:53:19.775Z,19.02
2019-04-14T19:55:46.813Z,16.75
2019-04-14T19:58:14.124Z,17.92
2019-04-14T20:00:41.155Z,19.82
2019-04-14T20:03:08.203Z,17.15
2019-04-14T20:05:35.540Z,17.10
2019-04-14T20:08:02.633Z,18.23
2019-04-14T20:10:30.054Z,17.00
2019-04-14T20:12:58.510Z,16.97
2019-04-14T20:18:14.622Z,14.60
2019-04-14T20:20:41.659Z,16.90
2019-04-14T20:23:08.799Z,16.45
2019-04-14T20:25:35.835Z,14.78
2019-04-14T20:28:02.876Z,15.50
2019-04-14T20:30:30.284Z,15.55
2019-04-14T20:32:57.322Z,14.68
2019-04-14T20:35:24.378Z,15.03
2019-04-14T20:37:51.418Z,14.05
2019-04-14T20:40:18.771Z,15.45
2019-04-14T20:42:46.130Z,15.00
2019-04-14T20:45:13.183Z,14.58
2019-04-14T20:47:40.532Z,15.00
2019-04-14T20:50:07.588Z,15.20
2019-04-14T20:52:34.625Z,15.13
2019-04-14T20:55:01.984Z,14.15
2019-04-14T20:57:29.190Z,15.63
2019-04-14T20:59:56.247Z,16.27
2019-04-14T21:02:23.288Z,17.95
2019-04-14T21:04:50.686Z,16.80
2019-04-14T21:07:17.723Z,14.07
2019-04-14T21:09:44.783Z,15.68
2019-04-14T21:12:11.825Z,14.78
2019-04-14T21:14:38.877Z,15.08
2019-04-14T21:17:05.916Z,15.13
2019-04-14T21:19:33.281Z,13.32
2019-04-14T21:22:00.314Z,13.72
2019-04-14T21:24:27.372Z,15.60
2019-04-14T21:26:54.422Z,16.45
2019-04-14T21:29:21.475Z,14.23
2019-04-14T21:31:48.846Z,14.10
2019-04-14T21:34:15.900Z,15.08
2019-04-14T21:36:43.250Z,15.70
2019-04-14T21:39:10.585Z,14.20
2019-04-14T21:41:39.612Z,17.02
2019-04-14T21:44:06.652Z,14.93
2019-04-14T21:46:33.935Z,13.95
2019-04-14T21:49:00.975Z,15.40
2019-04-14T21:51:28.279Z,15.28
2019-04-14T21:53:55.564Z,13.32
2019-04-14T21:56:22.641Z,15.08
2019-04-14T21:58:49.686Z,15.72
2019-04-14T22:01:16.735Z,15.32
2019-04-14T22:03:44.134Z,16.30
2019-04-14T22:06:11.491Z,15.25
2019-04-14T22:08:38.841Z,14.85
2019-04-14T22:11:05.900Z,16.90
2019-04-14T22:13:33.251Z,16.10
2019-04-14T22:16:00.602Z,15.60
2019-04-14T22:18:27.647Z,17.10
2019-04-14T22:20:54.698Z,15.75
2019-04-14T22:23:21.743Z,15.78
2019-04-14T22:25:49.102Z,17.32
2019-04-14T22:28:16.463Z,17.12
2019-04-14T22:30:43.507Z,16.80
2019-04-14T22:33:10.548Z,17.15
2019-04-14T22:35:37.605Z,16.67
2019-04-14T22:38:04.974Z,17.15
2019-04-14T22:40:32.031Z,17.23
2019-04-14T22:42:59.068Z,16.32
2019-04-14T22:45:26.122Z,18.05
2019-04-14T22:47:53.173Z,18.17
2019-04-14T22:50:20.501Z,18.45
2019-04-14T22:52:47.803Z,19.73
2019-04-14T22:55:15.106Z,19.15
2019-04-14T22:57:42.158Z,18.62
2019-04-14T23:00:09.432Z,20.27
2019-04-14T23:02:38.101Z,18.73
2019-04-14T23:05:05.247Z,16.10
2019-04-14T23:07:32.536Z,18.30
2019-04-14T23:09:59.823Z,17.92
2019-04-14T23:12:27.206Z,18.30
2019-04-14T23:14:54.246Z,21.25
2019-04-14T23:17:21.559Z,18.73
2019-04-14T23:19:48.881Z,20.60
2019-04-14T23:22:16.234Z,22.45
2019-04-14T23:24:43.511Z,21.62
2019-04-14T23:27:10.948Z,21.73
2019-04-14T23:29:37.993Z,22.98
2019-04-14T23:32:05.351Z,21.82
2019-04-14T23:34:32.649Z,21.37
2019-04-14T23:36:59.700Z,23.57
2019-04-14T23:39:28.123Z,23.50
2019-04-14T23:41:55.413Z,22.40
2019-04-14T23:44:22.738Z,20.72
2019-04-14T23:46:50.894Z,22.87
2019-04-14T23:49:18.177Z,24.50
2019-04-14T23:51:45.480Z,23.60
2019-04-14T23:54:12.514Z,21.97
2019-04-14T23:56:39.569Z,24.07
2019-04-14T23:59:06.601Z,24.45
